sensor_id;sensor_type;location;lat;lon;timestamp;P1;P2;P0
74426;PMS7003;62859;53.906;27.430;2023-02-28T00:01:25;6.7;6;3.3
74426;PMS7003;62859;53.906;27.430;2023-02-28T00:06:49;5;5;3.3
74426;PMS7003;62859;53.906;27.430;2023-02-28T00:12:03;6.3;5;3.7
74426;PMS7003;62859;53.906;27.430;2023-02-28T00:16:25;7;4.8;3.5
74426;PMS7003;62859;53.906;27.430;2023-02-28T00:22:01;7;6.3;4
74426;PMS7003;62859;53.906;27.430;2023-02-28T00:26:13;6;5;4.3
74426;PMS7003;62859;53.906;27.430;2023-02-28T00:31:47;8;6;4.7
74426;PMS7003;62859;53.906;27.430;2023-02-28T00:37:01;8.3;6.5;4.3
74426;PMS7003;62859;53.906;27.430;2023-02-28T00:42:03;8.3;5.7;4.7
74426;PMS7003;62859;53.906;27.430;2023-02-28T00:46:39;8.7;7;4
74426;PMS7003;62859;53.906;27.430;2023-02-28T00:51:13;6.7;6.7;4.7
74426;PMS7003;62859;53.906;27.430;2023-02-28T00:56:49;8.8;7.8;5
74426;PMS7003;62859;53.906;27.430;2023-02-28T01:01:13;12.3;8.7;5
74426;PMS7003;62859;53.906;27.430;2023-02-28T01:07:03;8.7;8.3;5.3
74426;PMS7003;62859;53.906;27.430;2023-02-28T01:11:39;10;7;5
74426;PMS7003;62859;53.906;27.430;2023-02-28T01:16:37;10.8;9.3;6.8
74426;PMS7003;62859;53.906;27.430;2023-02-28T01:21:49;9;8.7;5.7
74426;PMS7003;62859;53.906;27.430;2023-02-28T01:26:27;9.3;8;5.7
74426;PMS7003;62859;53.906;27.430;2023-02-28T01:31:59;11.7;10.3;7
74426;PMS7003;62859;53.906;27.430;2023-02-28T01:36:37;8.5;7.8;5.3
74426;PMS7003;62859;53.906;27.430;2023-02-28T01:41:26;12;9;5
74426;PMS7003;62859;53.906;27.430;2023-02-28T01:46:15;13;9;5
74426;PMS7003;62859;53.906;27.430;2023-02-28T01:51:40;9.3;7.3;5.3
74426;PMS7003;62859;53.906;27.430;2023-02-28T01:57:01;8;8;6.7
74426;PMS7003;62859;53.906;27.430;2023-02-28T02:01:37;9.3;9.3;5.7
74426;PMS7003;62859;53.906;27.430;2023-02-28T02:06:13;9.7;8.3;5.7
74426;PMS7003;62859;53.906;27.430;2023-02-28T02:11:49;11;9.3;6.5
74426;PMS7003;62859;53.906;27.430;2023-02-28T02:16:40;8.7;7.3;4.3
74426;PMS7003;62859;53.906;27.430;2023-02-28T02:22:21;9;7.7;5.3
74426;PMS7003;62859;53.906;27.430;2023-02-28T02:26:36;10.3;8;6.3
74426;PMS7003;62859;53.906;27.430;2023-02-28T02:31:19;8.5;8.3;5.5
74426;PMS7003;62859;53.906;27.430;2023-02-28T02:36:23;12.3;9.7;6.7
74426;PMS7003;62859;53.906;27.430;2023-02-28T02:41:38;12;8.7;6.3
74426;PMS7003;62859;53.906;27.430;2023-02-28T02:47:05;9.3;9;6
74426;PMS7003;62859;53.906;27.430;2023-02-28T02:51:41;11.5;9;6.8
74426;PMS7003;62859;53.906;27.430;2023-02-28T02:56:37;9;8.3;5.7
74426;PMS7003;62859;53.906;27.430;2023-02-28T03:01:48;14.3;12;7.3
74426;PMS7003;62859;53.906;27.430;2023-02-28T03:06:25;13.3;12;8.7
74426;PMS7003;62859;53.906;27.430;2023-02-28T03:12:01;13.3;11.8;7.8
74426;PMS7003;62859;53.906;27.430;2023-02-28T03:16:49;11.7;10.7;6.3
74426;PMS7003;62859;53.906;27.430;2023-02-28T03:21:14;15.3;13.3;8
74426;PMS7003;62859;53.906;27.430;2023-02-28T03:26:50;11.5;10;6
74426;PMS7003;62859;53.906;27.430;2023-02-28T03:31:28;14.7;12;8
74426;PMS7003;62859;53.906;27.430;2023-02-28T03:37:00;11.3;10;7
74426;PMS7003;62859;53.906;27.430;2023-02-28T03:41:40;13.7;12.3;6.7
74426;PMS7003;62859;53.906;27.430;2023-02-28T03:46:27;17.8;15.3;9.3
74426;PMS7003;62859;53.906;27.430;2023-02-28T03:51:47;14.3;11.3;8
74426;PMS7003;62859;53.906;27.430;2023-02-28T03:56:14;17.3;15;10.3
74426;PMS7003;62859;53.906;27.430;2023-02-28T04:02:01;22.7;18;11
74426;PMS7003;62859;53.906;27.430;2023-02-28T04:06:15;12.3;11.5;7.3
74426;PMS7003;62859;53.906;27.430;2023-02-28T04:11:16;10;9;6.3
74426;PMS7003;62859;53.906;27.430;2023-02-28T04:16:36;11.7;9.7;6.7
74426;PMS7003;62859;53.906;27.430;2023-02-28T04:21:13;12.7;11;7.7
74426;PMS7003;62859;53.906;27.430;2023-02-28T04:27:01;12;9.8;6.5
74426;PMS7003;62859;53.906;27.430;2023-02-28T04:31:39;12;12;8
74426;PMS7003;62859;53.906;27.430;2023-02-28T04:36:25;13.7;12;7.7
74426;PMS7003;62859;53.906;27.430;2023-02-28T04:41:49;12;10.7;8
74426;PMS7003;62859;53.906;27.430;2023-02-28T04:46:25;11.8;10.3;7.3
74426;PMS7003;62859;53.906;27.430;2023-02-28T04:52:01;13;12;7
74426;PMS7003;62859;53.906;27.430;2023-02-28T04:56:35;12;11;7.3
74426;PMS7003;62859;53.906;27.430;2023-02-28T05:01:16;16;13.7;8.7
74426;PMS7003;62859;53.906;27.430;2023-02-28T05:06:45;15.5;13.3;11
74426;PMS7003;62859;53.906;27.430;2023-02-28T05:11:14;15;12;9.3
74426;PMS7003;62859;53.906;27.430;2023-02-28T05:17:01;20;17;11
74426;PMS7003;62859;53.906;27.430;2023-02-28T05:21:21;20.3;18.3;12.5
74426;PMS7003;62859;53.906;27.430;2023-02-28T05:27:01;21.3;18.7;13
74426;PMS7003;62859;53.906;27.430;2023-02-28T05:31:47;23.3;18.3;13.7
74426;PMS7003;62859;53.906;27.430;2023-02-28T05:36:13;18;17;13
74426;PMS7003;62859;53.906;27.430;2023-02-28T05:41:59;16.8;14.5;10.8
74426;PMS7003;62859;53.906;27.430;2023-02-28T05:46:37;18.3;17.7;12
74426;PMS7003;62859;53.906;27.430;2023-02-28T05:51:59;20.7;17.7;12.3
74426;PMS7003;62859;53.906;27.430;2023-02-28T05:56:35;25;22.3;14.3
74426;PMS7003;62859;53.906;27.430;2023-02-28T06:01:22;21.5;16.3;9.8
74426;PMS7003;62859;53.906;27.430;2023-02-28T06:06:59;14.3;12;9.7
74426;PMS7003;62859;53.906;27.430;2023-02-28T06:11:45;15;12.7;10
74426;PMS7003;62859;53.906;27.430;2023-02-28T06:16:59;18;14.7;11
74426;PMS7003;62859;53.906;27.430;2023-02-28T06:21:35;18.5;15.8;10.5
74426;PMS7003;62859;53.906;27.430;2023-02-28T06:26:13;21;19.7;12.3
74426;PMS7003;62859;53.906;27.430;2023-02-28T06:31:59;21;17;11.7
74426;PMS7003;62859;53.906;27.430;2023-02-28T06:36:23;23.3;19.7;12.7
74426;PMS7003;62859;53.906;27.430;2023-02-28T06:42:01;30.5;25.5;16.5
74426;PMS7003;62859;53.906;27.430;2023-02-28T06:46:47;19.7;18;13.3
74426;PMS7003;62859;53.906;27.430;2023-02-28T06:51:23;19.7;19;13
74426;PMS7003;62859;53.906;27.430;2023-02-28T06:56:59;17.7;15.7;10
74426;PMS7003;62859;53.906;27.430;2023-02-28T07:01:25;25;20.3;12.8
74426;PMS7003;62859;53.906;27.430;2023-02-28T07:06:59;21.7;17.7;12.7
74426;PMS7003;62859;53.906;27.430;2023-02-28T07:11:47;20;17.7;12.3
74426;PMS7003;62859;53.906;27.430;2023-02-28T07:16:13;20;19;12.3
74426;PMS7003;62859;53.906;27.430;2023-02-28T07:22:01;27.3;23.7;15.7
74426;PMS7003;62859;53.906;27.430;2023-02-28T07:26:14;22;18;11.3
74426;PMS7003;62859;53.906;27.430;2023-02-28T07:32:01;18.7;16.3;11
74426;PMS7003;62859;53.906;27.430;2023-02-28T07:36:47;16.5;15;10.3
74426;PMS7003;62859;53.906;27.430;2023-02-28T07:41:13;17.7;15;9
74426;PMS7003;62859;53.906;27.430;2023-02-28T07:46:59;16.7;12.7;8
74426;PMS7003;62859;53.906;27.430;2023-02-28T07:51:37;15.7;13.3;9
74426;PMS7003;62859;53.906;27.430;2023-02-28T07:56:59;20.5;15.8;10.3
74426;PMS7003;62859;53.906;27.430;2023-02-28T08:01:43;13.3;12;8
74426;PMS7003;62859;53.906;27.430;2023-02-28T08:06:15;10.3;9.7;6
74426;PMS7003;62859;53.906;27.430;2023-02-28T08:11:59;12;11;8.3
74426;PMS7003;62859;53.906;27.430;2023-02-28T08:16:35;15.8;12.3;9
74426;PMS7003;62859;53.906;27.430;2023-02-28T08:21:59;18.7;15.7;8.7
74426;PMS7003;62859;53.906;27.430;2023-02-28T08:26:45;13.7;12;8
74426;PMS7003;62859;53.906;27.430;2023-02-28T08:31:14;19;15;11
74426;PMS7003;62859;53.906;27.430;2023-02-28T08:36:59;14.3;11.5;8
74426;PMS7003;62859;53.906;27.430;2023-02-28T08:41:37;11.7;10;7.3
74426;PMS7003;62859;53.906;27.430;2023-02-28T08:46:45;8.3;7;5
74426;PMS7003;62859;53.906;27.430;2023-02-28T08:51:45;35;30.3;19.3
74426;PMS7003;62859;53.906;27.430;2023-02-28T08:56:45;9;8;5.3
74426;PMS7003;62859;53.906;27.430;2023-02-28T09:01:45;7;7;5
74426;PMS7003;62859;53.906;27.430;2023-02-28T09:06:37;8.7;7;4.7
74426;PMS7003;62859;53.906;27.430;2023-02-28T09:11:59;5.8;5;3.8
74426;PMS7003;62859;53.906;27.430;2023-02-28T09:16:43;8.3;7.3;4
74426;PMS7003;62859;53.906;27.430;2023-02-28T09:21:25;6.7;5.7;4.7
74426;PMS7003;62859;53.906;27.430;2023-02-28T09:26:45;5.3;5.3;3.3
74426;PMS7003;62859;53.906;27.430;2023-02-28T09:31:37;5.8;4.3;2.5
74426;PMS7003;62859;53.906;27.430;2023-02-28T09:36:59;7.3;7;4.3
74426;PMS7003;62859;53.906;27.430;2023-02-28T09:41:46;7;6;4.3
74426;PMS7003;62859;53.906;27.430;2023-02-28T09:46:34;7.7;5.7;4
74426;PMS7003;62859;53.906;27.430;2023-02-28T09:51:45;6.5;4.5;3
74426;PMS7003;62859;53.906;27.430;2023-02-28T09:56:27;4.3;4.3;2.7
74426;PMS7003;62859;53.906;27.430;2023-02-28T10:02:01;5.7;4;2.3
74426;PMS7003;62859;53.906;27.430;2023-02-28T10:06:46;7;5.3;4.3
74426;PMS7003;62859;53.906;27.430;2023-02-28T10:11:37;5.3;4.3;3
74426;PMS7003;62859;53.906;27.430;2023-02-28T10:16:47;6;4.3;3
74426;PMS7003;62859;53.906;27.430;2023-02-28T10:21:37;4;4;2.7
74426;PMS7003;62859;53.906;27.430;2023-02-28T10:26:59;6.3;4.7;3.7
74426;PMS7003;62859;53.906;27.430;2023-02-28T10:31:47;5.5;4.5;4
74426;PMS7003;62859;53.906;27.430;2023-02-28T10:36:35;6;5.3;4
74426;PMS7003;62859;53.906;27.430;2023-02-28T10:41:47;5.3;5.3;4
74426;PMS7003;62859;53.906;27.430;2023-02-28T10:46:25;6.3;5.7;4.3
74426;PMS7003;62859;53.906;27.430;2023-02-28T10:51:59;8;7.3;4.5
74426;PMS7003;62859;53.906;27.430;2023-02-28T10:56:24;4.7;3.7;2.3
74426;PMS7003;62859;53.906;27.430;2023-02-28T11:01:34;4.7;4;3
74426;PMS7003;62859;53.906;27.430;2023-02-28T11:06:45;4.5;4;3.3
74426;PMS7003;62859;53.906;27.430;2023-02-28T11:11:41;5.3;4.3;3.3
74426;PMS7003;62859;53.906;27.430;2023-02-28T11:16:45;6;5.3;3.7
74426;PMS7003;62859;53.906;27.430;2023-02-28T11:21:47;5.7;5.7;4.7
74426;PMS7003;62859;53.906;27.430;2023-02-28T11:26:40;8.3;6;4.3
74426;PMS7003;62859;53.906;27.430;2023-02-28T11:32:04;7.3;6.7;4.7
74426;PMS7003;62859;53.906;27.430;2023-02-28T11:36:39;7;6.3;4.8
74426;PMS7003;62859;53.906;27.430;2023-02-28T11:42:08;6.3;6;4.7
74426;PMS7003;62859;53.906;27.430;2023-02-28T11:46:18;9.7;8;5.3
74426;PMS7003;62859;53.906;27.430;2023-02-28T11:51:15;7;5.7;4
74426;PMS7003;62859;53.906;27.430;2023-02-28T11:56:48;8.3;6.7;5
74426;PMS7003;62859;53.906;27.430;2023-02-28T12:01:16;6;5;4
74426;PMS7003;62859;53.906;27.430;2023-02-28T12:06:58;6.7;6.3;4
74426;PMS7003;62859;53.906;27.430;2023-02-28T12:11:50;5.5;5;3.5
74426;PMS7003;62859;53.906;27.430;2023-02-28T12:16:40;6.3;5.3;3.7
74426;PMS7003;62859;53.906;27.430;2023-02-28T12:22:01;6;5;4
74426;PMS7003;62859;53.906;27.430;2023-02-28T12:26:49;7;5.3;3.7
74426;PMS7003;62859;53.906;27.430;2023-02-28T12:32:03;6.3;5;3.8
74426;PMS7003;62859;53.906;27.430;2023-02-28T12:36:49;6.7;5.7;3.3
74426;PMS7003;62859;53.906;27.430;2023-02-28T12:41:13;7.3;6.3;4
74426;PMS7003;62859;53.906;27.430;2023-02-28T12:46:50;5.8;4;3.3
74426;PMS7003;62859;53.906;27.430;2023-02-28T12:51:49;6;5;4.3
74426;PMS7003;62859;53.906;27.430;2023-02-28T12:57:02;5.3;4.7;3.3
74426;PMS7003;62859;53.906;27.430;2023-02-28T13:01:22;7;4.7;3
74426;PMS7003;62859;53.906;27.430;2023-02-28T13:06:56;4.3;4.3;3.3
74426;PMS7003;62859;53.906;27.430;2023-02-28T13:12:01;4.7;4;3
74426;PMS7003;62859;53.906;27.430;2023-02-28T13:16:55;5.7;5;4
74426;PMS7003;62859;53.906;27.430;2023-02-28T13:21:45;6;5.7;3.7
74426;PMS7003;62859;53.906;27.430;2023-02-28T13:27:43;5.3;4.5;3.3
74426;PMS7003;62859;53.906;27.430;2023-02-28T13:31:13;6.7;5;4
74426;PMS7003;62859;53.906;27.430;2023-02-28T13:37:30;7;5.3;3.7
74426;PMS7003;62859;53.906;27.430;2023-02-28T13:41:46;4.3;4.3;3
74426;PMS7003;62859;53.906;27.430;2023-02-28T13:47:52;4;4;3
74426;PMS7003;62859;53.906;27.430;2023-02-28T13:51:40;6.7;6;3.7
74426;PMS7003;62859;53.906;27.430;2023-02-28T13:56:27;4.3;3.3;3.3
74426;PMS7003;62859;53.906;27.430;2023-02-28T14:02:06;5.7;3.7;2.3
74426;PMS7003;62859;53.906;27.430;2023-02-28T14:06:26;5;3.8;2.8
74426;PMS7003;62859;53.906;27.430;2023-02-28T14:11:23;6;5;4.7
74426;PMS7003;62859;53.906;27.430;2023-02-28T14:16:40;3.3;3;2
74426;PMS7003;62859;53.906;27.430;2023-02-28T14:21:23;5;3.8;2.8
74426;PMS7003;62859;53.906;27.430;2023-02-28T14:27:03;4;3;2
74426;PMS7003;62859;53.906;27.430;2023-02-28T14:31:28;3;2.7;2
74426;PMS7003;62859;53.906;27.430;2023-02-28T14:36:47;3.7;3;2
74426;PMS7003;62859;53.906;27.430;2023-02-28T14:41:29;4.5;3.3;2.3
74426;PMS7003;62859;53.906;27.430;2023-02-28T14:46:26;2;1.7;1
74426;PMS7003;62859;53.906;27.430;2023-02-28T14:52:01;2.3;1.3;1
74426;PMS7003;62859;53.906;27.430;2023-02-28T14:56:24;3.3;2.3;1.7
74426;PMS7003;62859;53.906;27.430;2023-02-28T15:01:45;4;2.3;1.5
74426;PMS7003;62859;53.906;27.430;2023-02-28T15:06:37;5.7;3.3;2
74426;PMS7003;62859;53.906;27.430;2023-02-28T15:11:37;4;2;1.7
74426;PMS7003;62859;53.906;27.430;2023-02-28T15:17:02;3.7;3;2
74426;PMS7003;62859;53.906;27.430;2023-02-28T15:21:15;4.3;3.3;2.3
74426;PMS7003;62859;53.906;27.430;2023-02-28T15:26:47;4.7;4;2.7
74426;PMS7003;62859;53.906;27.430;2023-02-28T15:31:18;2;2;0.7
74426;PMS7003;62859;53.906;27.430;2023-02-28T15:36:26;4.7;3;2.7
74426;PMS7003;62859;53.906;27.430;2023-02-28T15:42:18;3.7;3;2.3
74426;PMS7003;62859;53.906;27.430;2023-02-28T15:46:28;5;5;2.7
74426;PMS7003;62859;53.906;27.430;2023-02-28T15:51:47;5;5;2.7
74426;PMS7003;62859;53.906;27.430;2023-02-28T15:56:38;6;4.5;2.5
74426;PMS7003;62859;53.906;27.430;2023-02-28T16:01:17;3.5;2.5;2
74426;PMS7003;62859;53.906;27.430;2023-02-28T16:07:02;3;2.7;1.3
74426;PMS7003;62859;53.906;27.430;2023-02-28T16:11:48;6;4.3;2
74426;PMS7003;62859;53.906;27.430;2023-02-28T16:16:48;3.5;3;2
74426;PMS7003;62859;53.906;27.430;2023-02-28T16:21:13;5.3;3.3;2
74426;PMS7003;62859;53.906;27.430;2023-02-28T16:26:26;4;3.7;2.3
74426;PMS7003;62859;53.906;27.430;2023-02-28T16:32:02;4.7;3.7;1.7
74426;PMS7003;62859;53.906;27.430;2023-02-28T16:36:37;4.3;2.3;1.8
74426;PMS7003;62859;53.906;27.430;2023-02-28T16:41:45;3.3;3;2
74426;PMS7003;62859;53.906;27.430;2023-02-28T16:46:14;4.7;4.3;2.3
74426;PMS7003;62859;53.906;27.430;2023-02-28T16:51:25;4.7;3.7;1.7
74426;PMS7003;62859;53.906;27.430;2023-02-28T16:57:01;3.3;2.8;1.8
74426;PMS7003;62859;53.906;27.430;2023-02-28T17:01:39;3.7;2.7;2
74426;PMS7003;62859;53.906;27.430;2023-02-28T17:06:47;3;2;1.3
74426;PMS7003;62859;53.906;27.430;2023-02-28T17:11:39;4.3;1.7;1.3
74426;PMS7003;62859;53.906;27.430;2023-02-28T17:16:29;3.3;2.5;1.3
74426;PMS7003;62859;53.906;27.430;2023-02-28T17:21:35;2.3;2.3;1.7
74426;PMS7003;62859;53.906;27.430;2023-02-28T17:26:27;2.7;2.3;1.7
74426;PMS7003;62859;53.906;27.430;2023-02-28T17:32:01;2.7;2.7;1.7
74426;PMS7003;62859;53.906;27.430;2023-02-28T17:37:01;3;2;1.5
74426;PMS7003;62859;53.906;27.430;2023-02-28T17:41:13;3.3;3;1.7
74426;PMS7003;62859;53.906;27.430;2023-02-28T17:46:25;2.3;2.3;1.3
74426;PMS7003;62859;53.906;27.430;2023-02-28T17:51:14;3.5;3.3;1.8
74426;PMS7003;62859;53.906;27.430;2023-02-28T17:57:01;3.3;2.7;1.7
74426;PMS7003;62859;53.906;27.430;2023-02-28T18:01:49;3.7;2.7;2
74426;PMS7003;62859;53.906;27.430;2023-02-28T18:06:26;4;3.7;2
74426;PMS7003;62859;53.906;27.430;2023-02-28T18:11:33;3;3;2
74426;PMS7003;62859;53.906;27.430;2023-02-28T18:16:27;4;4;2.7
74426;PMS7003;62859;53.906;27.430;2023-02-28T18:21:59;4;2.7;1.7
74426;PMS7003;62859;53.906;27.430;2023-02-28T18:26:39;2.7;2.7;1.7
74426;PMS7003;62859;53.906;27.430;2023-02-28T18:31:14;4.8;3.5;2.5
74426;PMS7003;62859;53.906;27.430;2023-02-28T18:36:35;2;2;2
74426;PMS7003;62859;53.906;27.430;2023-02-28T18:41:35;2.7;2.3;1.3
74426;PMS7003;62859;53.906;27.430;2023-02-28T18:47:01;3.7;3.7;2.3
74426;PMS7003;62859;53.906;27.430;2023-02-28T18:51:51;2;2;1.8
74426;PMS7003;62859;53.906;27.430;2023-02-28T18:56:14;2;2;1
74426;PMS7003;62859;53.906;27.430;2023-02-28T19:01:33;2;2;1
74426;PMS7003;62859;53.906;27.430;2023-02-28T19:06:35;3.7;2.7;1
74426;PMS7003;62859;53.906;27.430;2023-02-28T19:12:01;4.8;2.3;1.5
74426;PMS7003;62859;53.906;27.430;2023-02-28T19:16:51;4.7;3.7;1.7
74426;PMS7003;62859;53.906;27.430;2023-02-28T19:21:14;4.3;3;1.3
74426;PMS7003;62859;53.906;27.430;2023-02-28T19:26:25;1.7;1.7;1.7
74426;PMS7003;62859;53.906;27.430;2023-02-28T19:31:14;3.3;2.5;2
74426;PMS7003;62859;53.906;27.430;2023-02-28T19:37:01;3;3;2.3
74426;PMS7003;62859;53.906;27.430;2023-02-28T19:41:52;3.7;3;1.7
74426;PMS7003;62859;53.906;27.430;2023-02-28T19:46:35;4.5;3;1.8
74426;PMS7003;62859;53.906;27.430;2023-02-28T19:51:35;4.3;4;1.7
74426;PMS7003;62859;53.906;27.430;2023-02-28T19:56:14;3;2.7;1.7
74426;PMS7003;62859;53.906;27.430;2023-02-28T20:01:59;3;3;2
74426;PMS7003;62859;53.906;27.430;2023-02-28T20:06:51;3.5;2;1.5
74426;PMS7003;62859;53.906;27.430;2023-02-28T20:11:27;1.7;1.7;1.7
74426;PMS7003;62859;53.906;27.430;2023-02-28T20:16:49;3;2.7;2
74426;PMS7003;62859;53.906;27.430;2023-02-28T20:21:25;3.7;2.7;2
74426;PMS7003;62859;53.906;27.430;2023-02-28T20:26:59;3.8;2.5;1.5
74426;PMS7003;62859;53.906;27.430;2023-02-28T20:31:52;2.7;2.7;1.3
74426;PMS7003;62859;53.906;27.430;2023-02-28T20:36:21;3;2.7;1.3
74426;PMS7003;62859;53.906;27.430;2023-02-28T20:41:35;3;2.7;2.3
74426;PMS7003;62859;53.906;27.430;2023-02-28T20:46:13;3.3;2.3;2
74426;PMS7003;62859;53.906;27.430;2023-02-28T20:52:01;4.7;2.3;1.3
74426;PMS7003;62859;53.906;27.430;2023-02-28T20:56:49;4.7;3.3;2
74426;PMS7003;62859;53.906;27.430;2023-02-28T21:01:27;3.3;2.3;1.7
74426;PMS7003;62859;53.906;27.430;2023-02-28T21:06:36;4.8;3.8;2.3
74426;PMS7003;62859;53.906;27.430;2023-02-28T21:11:26;10;8.3;5.3
74426;PMS7003;62859;53.906;27.430;2023-02-28T21:17:01;5.7;5.7;4
74426;PMS7003;62859;53.906;27.430;2023-02-28T21:21:52;4;3.7;2.3
74426;PMS7003;62859;53.906;27.430;2023-02-28T21:26:59;3.8;3;2
74426;PMS7003;62859;53.906;27.430;2023-02-28T21:31:35;5;4.7;3
74426;PMS7003;62859;53.906;27.430;2023-02-28T21:36:27;5;4;3
74426;PMS7003;62859;53.906;27.430;2023-02-28T21:42:01;6.3;4.5;2
74426;PMS7003;62859;53.906;27.430;2023-02-28T21:46:50;6.3;5.7;2.3
74426;PMS7003;62859;53.906;27.430;2023-02-28T21:52:01;5.7;3.3;2.3
74426;PMS7003;62859;53.906;27.430;2023-02-28T21:56:35;2.7;2.3;2
74426;PMS7003;62859;53.906;27.430;2023-02-28T22:01:34;4.8;3.3;2.3
74426;PMS7003;62859;53.906;27.430;2023-02-28T22:07:01;7.7;6;2.7
74426;PMS7003;62859;53.906;27.430;2023-02-28T22:11:51;5;3;2.7
74426;PMS7003;62859;53.906;27.430;2023-02-28T22:16:59;5;5;2.7
74426;PMS7003;62859;53.906;27.430;2023-02-28T22:21:14;4;4;2.3
74426;PMS7003;62859;53.906;27.430;2023-02-28T22:26:15;5;3;2.3
74426;PMS7003;62859;53.906;27.430;2023-02-28T22:32:01;4;2.7;2.7
74426;PMS7003;62859;53.906;27.430;2023-02-28T22:36:51;5;5;2.7
74426;PMS7003;62859;53.906;27.430;2023-02-28T22:41:59;5.3;3.5;2
74426;PMS7003;62859;53.906;27.430;2023-02-28T22:46:22;5;4;2.3
74426;PMS7003;62859;53.906;27.430;2023-02-28T22:51:14;3.3;3.3;2.7
74426;PMS7003;62859;53.906;27.430;2023-02-28T22:56:57;5;4;2.3
74426;PMS7003;62859;53.906;27.430;2023-02-28T23:01:30;6.3;3.8;2.8
74426;PMS7003;62859;53.906;27.430;2023-02-28T23:07:01;4.7;4;2.3
74426;PMS7003;62859;53.906;27.430;2023-02-28T23:11:16;3.3;3.3;2
74426;PMS7003;62859;53.906;27.430;2023-02-28T23:16:26;5;4.3;2.7
74426;PMS7003;62859;53.906;27.430;2023-02-28T23:22:00;4.3;4.3;3
74426;PMS7003;62859;53.906;27.430;2023-02-28T23:26:48;4.7;3.3;2.3
74426;PMS7003;62859;53.906;27.430;2023-02-28T23:31:46;5.3;4.7;2.3
74426;PMS7003;62859;53.906;27.430;2023-02-28T23:36:33;5.3;5.3;2.8
74426;PMS7003;62859;53.906;27.430;2023-02-28T23:41:25;5.3;4;2.7
74426;PMS7003;62859;53.906;27.430;2023-02-28T23:46:57;3;3;2
74426;PMS7003;62859;53.906;27.430;2023-02-28T23:51:47;3;2.7;2
74426;PMS7003;62859;53.906;27.430;2023-02-28T23:56:57;4.5;4.5;2.3
